Philadelphia, Pennsylvania
Current Conditions -  °F | °C
As of 5:54 PM on Thursday 23 Oct 2014 (Local Time) from KPHL Reporting Station
Overcast Overcast  
Wind Chill: 13°   Ceiling: 6000
Heat Index: 13°   Visibility: 10mi
Dew Point:   Wind: 18mph
Humidity: 62%   Direction: 340°NNW
Pressure: 29.8"   Gusts: 25mph
Location:  39.95°N, 75.16°W
Report Text: KPHL 232154Z 34016G22KT 10SM FEW030 BKN060 OVC085 13/06 A2980 RMK AO2 PK WND 33027/2111 SLP090 T01330061 PNO $
Loading
Personal Weather Stations






























Interactive Weather Map New forecast layout! Learn more

10-Day Weather Forecast

Advertisements
Track Severe Weather on mobile